createdAt,value
2022-09-15T00:00:29.032Z,99283.59
2022-09-15T00:02:56.159Z,99277.53
2022-09-15T00:05:23.743Z,99275.88
2022-09-15T00:07:50.321Z,99274.19
2022-09-15T00:10:17.425Z,99271.63
2022-09-15T00:12:44.446Z,99275.63
2022-09-15T00:15:14.821Z,99270.53
2022-09-15T00:17:43.197Z,99272.13
2022-09-15T00:20:10.691Z,99270.03
2022-09-15T00:22:37.402Z,99278.88
2022-09-15T00:25:04.521Z,99278.97
2022-09-15T00:27:32.590Z,99273.06
2022-09-15T00:29:59.153Z,99273.16
2022-09-15T00:32:26.217Z,99262.13
2022-09-15T00:34:54.068Z,99257.72
2022-09-15T00:37:20.813Z,99260.25
2022-09-15T00:39:47.960Z,99259.47
2022-09-15T00:42:19.994Z,99260.88
2022-09-15T00:44:55.093Z,99254.75
2022-09-15T00:47:29.001Z,99254.97
2022-09-15T00:49:59.856Z,99252.16
2022-09-15T00:52:39.724Z,99247.91
2022-09-15T00:55:12.403Z,99244.53
2022-09-15T00:57:48.007Z,99245.81
2022-09-15T01:00:16.850Z,99244.31
2022-09-15T01:02:44.916Z,99239.00
2022-09-15T01:05:16.053Z,99239.88
2022-09-15T01:07:54.729Z,99238.13
2022-09-15T01:10:29.574Z,99237.22
2022-09-15T01:13:03.411Z,99227.78
2022-09-15T01:16:08.516Z,99209.28
2022-09-15T01:18:58.143Z,99199.31
2022-09-15T01:21:24.616Z,99187.34
2022-09-15T01:24:22.281Z,99183.06
2022-09-15T01:27:24.402Z,99180.56
2022-09-15T01:30:27.741Z,99180.53
2022-09-15T01:33:06.648Z,99178.88
2022-09-15T01:35:53.637Z,99183.31
2022-09-15T01:38:45.007Z,99187.59
2022-09-15T01:41:29.483Z,99187.78
2022-09-15T01:44:12.824Z,99192.16
2022-09-15T01:46:52.569Z,99188.69
2022-09-15T01:49:25.632Z,99187.81
2022-09-15T01:51:54.081Z,99187.78
2022-09-15T01:54:30.976Z,99185.97
2022-09-15T01:56:57.807Z,99199.03
2022-09-15T01:59:24.565Z,99203.47
2022-09-15T02:02:07.393Z,99192.91
2022-09-15T02:05:01.111Z,99202.31
2022-09-15T02:07:36.651Z,99208.38
2022-09-15T02:10:13.530Z,99207.47
2022-09-15T02:13:00.917Z,99194.13
2022-09-15T02:15:42.293Z,99200.22
2022-09-15T02:18:14.205Z,99205.50
2022-09-15T02:20:51.212Z,99204.34
2022-09-15T02:23:28.679Z,99205.19
2022-09-15T02:26:04.978Z,99205.94
2022-09-15T02:28:36.906Z,99205.13
2022-09-15T02:31:05.854Z,99200.47
2022-09-15T02:33:40.163Z,99196.50
2022-09-15T02:36:08.306Z,99198.28
2022-09-15T02:38:42.234Z,99195.03
2022-09-15T02:41:08.847Z,99197.63
2022-09-15T02:43:44.600Z,99193.34
2022-09-15T02:46:11.260Z,99190.66
2022-09-15T02:48:37.851Z,99190.97
2022-09-15T02:51:04.384Z,99193.78
2022-09-15T02:53:31.793Z,99189.09
2022-09-15T02:55:58.377Z,99179.63
2022-09-15T02:58:25.048Z,99166.75
2022-09-15T03:00:52.054Z,99158.06
2022-09-15T03:03:19.880Z,99161.47
2022-09-15T03:05:46.397Z,99160.72
2022-09-15T03:08:12.901Z,99160.97
2022-09-15T03:10:39.450Z,99154.91
2022-09-15T03:13:05.931Z,99150.16
2022-09-15T03:15:34.062Z,99157.19
2022-09-15T03:18:02.321Z,99157.97
2022-09-15T03:20:30.773Z,99153.81
2022-09-15T03:22:57.342Z,99156.41
2022-09-15T03:25:26.883Z,99158.06
2022-09-15T03:27:53.492Z,99159.94
2022-09-15T03:30:20.117Z,99164.38
2022-09-15T03:32:48.770Z,99166.94
2022-09-15T03:35:15.340Z,99164.97
2022-09-15T03:37:41.870Z,99172.00
2022-09-15T03:40:10.798Z,99172.75
2022-09-15T03:42:37.571Z,99180.44
2022-09-15T03:45:04.669Z,99189.31
2022-09-15T03:47:31.492Z,99178.38
2022-09-15T03:49:58.238Z,99181.66
2022-09-15T03:52:24.977Z,99181.03
2022-09-15T03:54:51.768Z,99179.53
2022-09-15T03:57:18.333Z,99160.72
2022-09-15T03:59:44.891Z,99157.66
2022-09-15T04:02:11.544Z,99167.69
2022-09-15T04:04:38.170Z,99147.38
2022-09-15T04:07:04.676Z,99147.25
2022-09-15T04:09:31.507Z,99146.47
2022-09-15T04:11:58.006Z,99130.47
2022-09-15T04:14:24.566Z,99127.22
2022-09-15T04:16:51.078Z,99134.69
2022-09-15T04:19:17.692Z,99134.72
2022-09-15T04:21:45.780Z,99136.41
2022-09-15T04:24:12.301Z,99155.97
2022-09-15T04:26:38.998Z,99173.22
2022-09-15T04:29:13.050Z,99173.13
2022-09-15T04:31:39.704Z,99162.72
2022-09-15T04:34:06.490Z,99152.63
2022-09-15T04:36:33.085Z,99146.09
2022-09-15T04:38:59.769Z,99141.63
2022-09-15T04:41:27.078Z,99137.31
2022-09-15T04:43:54.000Z,99146.66
2022-09-15T04:46:20.950Z,99153.59
2022-09-15T04:48:48.810Z,99163.97
2022-09-15T04:51:18.543Z,99181.19
2022-09-15T04:53:45.954Z,99189.94
2022-09-15T04:56:15.125Z,99182.75
2022-09-15T04:58:44.585Z,99188.59
2022-09-15T05:01:15.077Z,99198.75
2022-09-15T05:03:42.312Z,99200.56
2022-09-15T05:06:11.293Z,99195.25
2022-09-15T05:08:38.158Z,99186.66
2022-09-15T05:11:10.616Z,99189.31
2022-09-15T05:13:38.576Z,99189.41
2022-09-15T05:16:05.652Z,99183.59
2022-09-15T05:18:33.184Z,99182.75
2022-09-15T05:21:04.221Z,99181.94
2022-09-15T05:23:31.340Z,99181.88
2022-09-15T05:26:00.025Z,99198.03
2022-09-15T05:28:27.272Z,99189.34
2022-09-15T05:30:55.389Z,99193.72
2022-09-15T05:33:23.961Z,99189.34
2022-09-15T05:35:55.169Z,99184.19
2022-09-15T05:38:22.177Z,99191.13
2022-09-15T05:40:49.278Z,99192.81
2022-09-15T05:43:16.981Z,99193.75
2022-09-15T05:45:43.901Z,99196.34
2022-09-15T05:48:12.571Z,99196.25
2022-09-15T05:50:39.417Z,99205.81
2022-09-15T05:53:07.526Z,99210.81
2022-09-15T05:55:38.220Z,99202.25
2022-09-15T05:58:04.813Z,99214.34
2022-09-15T06:00:31.398Z,99206.50
2022-09-15T06:02:58.118Z,99219.28
2022-09-15T06:05:24.749Z,99233.94
2022-09-15T06:07:55.197Z,99221.03
2022-09-15T06:10:25.058Z,99221.25
2022-09-15T06:12:54.764Z,99222.84
2022-09-15T06:15:22.179Z,99228.94
2022-09-15T06:17:49.265Z,99232.84
2022-09-15T06:20:15.983Z,99245.16
2022-09-15T06:22:42.556Z,99249.25
2022-09-15T06:25:09.152Z,99252.00
2022-09-15T06:27:35.888Z,99245.88
2022-09-15T06:30:02.859Z,99251.88
2022-09-15T06:32:29.399Z,99258.63
2022-09-15T06:34:55.966Z,99260.50
2022-09-15T06:37:22.568Z,99258.00
2022-09-15T06:39:49.190Z,99264.75
2022-09-15T06:42:15.898Z,99273.78
2022-09-15T06:44:42.599Z,99280.09
2022-09-15T06:47:10.503Z,99279.16
2022-09-15T06:49:37.104Z,99277.31
2022-09-15T06:52:05.240Z,99289.53
2022-09-15T06:54:32.233Z,99293.75
2022-09-15T06:56:59.032Z,99303.19
2022-09-15T06:59:25.744Z,99303.00
2022-09-15T07:01:54.612Z,99301.50
2022-09-15T07:04:21.884Z,99306.66
2022-09-15T07:06:49.011Z,99308.53
2022-09-15T07:09:16.520Z,99315.41
2022-09-15T07:11:43.082Z,99314.00
2022-09-15T07:14:11.230Z,99315.44
2022-09-15T07:16:38.386Z,99322.69
2022-09-15T07:19:06.202Z,99306.78
2022-09-15T07:21:33.887Z,99322.25
2022-09-15T07:24:03.830Z,99317.00
2022-09-15T07:26:34.100Z,99325.44
2022-09-15T07:29:03.555Z,99331.66
2022-09-15T07:31:32.598Z,99325.00
2022-09-15T07:34:00.200Z,99332.00
2022-09-15T07:36:27.301Z,99337.09
2022-09-15T07:38:54.110Z,99340.09
2022-09-15T07:41:26.799Z,99334.88
2022-09-15T07:43:56.002Z,99341.72
2022-09-15T07:46:25.151Z,99334.84
2022-09-15T07:48:56.358Z,99325.13
2022-09-15T07:51:24.008Z,99324.00
2022-09-15T07:53:51.767Z,99339.53
2022-09-15T07:56:22.455Z,99334.19
2022-09-15T07:58:49.835Z,99338.28
2022-09-15T08:01:18.328Z,99352.19
2022-09-15T08:03:49.139Z,99346.84
2022-09-15T08:06:18.802Z,99359.72
2022-09-15T08:08:45.871Z,99364.88
2022-09-15T08:11:18.878Z,99376.00
2022-09-15T08:13:51.042Z,99376.09
2022-09-15T08:16:20.852Z,99380.31
2022-09-15T08:18:49.295Z,99383.75
2022-09-15T08:21:20.406Z,99392.19
2022-09-15T08:23:55.749Z,99412.94
2022-09-15T08:26:22.723Z,99401.63
2022-09-15T08:28:50.413Z,99404.22
2022-09-15T08:31:17.866Z,99411.97
2022-09-15T08:33:50.190Z,99415.50
2022-09-15T08:36:16.895Z,99419.84
2022-09-15T08:38:45.085Z,99421.13
2022-09-15T08:41:19.532Z,99425.50
2022-09-15T08:43:53.325Z,99434.06
2022-09-15T08:46:26.526Z,99436.50
2022-09-15T08:49:12.498Z,99434.03
2022-09-15T08:51:47.528Z,99446.50
2022-09-15T08:54:22.603Z,99451.88
2022-09-15T08:56:50.439Z,99447.75
2022-09-15T08:59:19.243Z,99468.38
2022-09-15T09:02:14.471Z,99471.69
2022-09-15T09:05:02.346Z,99461.09
2022-09-15T09:08:09.630Z,99463.28
2022-09-15T09:10:36.166Z,99463.13
2022-09-15T09:13:11.678Z,99466.56
2022-09-15T09:15:44.077Z,99470.72
2022-09-15T09:18:32.789Z,99464.53
2022-09-15T09:21:35.596Z,99470.25
2022-09-15T09:24:02.466Z,99471.66
2022-09-15T09:26:31.990Z,99460.41
2022-09-15T09:29:00.968Z,99463.69
2022-09-15T09:31:28.466Z,99462.53
2022-09-15T09:34:10.316Z,99465.31
2022-09-15T09:36:36.806Z,99468.19
2022-09-15T09:39:04.160Z,99464.34
2022-09-15T09:41:41.872Z,99468.19
2022-09-15T09:44:14.218Z,99458.31
2022-09-15T09:46:41.838Z,99460.44
2022-09-15T09:49:23.080Z,99460.16
2022-09-15T09:51:55.262Z,99457.25
2022-09-15T09:54:25.076Z,99461.53
2022-09-15T09:56:53.788Z,99457.75
2022-09-15T09:59:42.906Z,99455.75
2022-09-15T10:02:13.031Z,99451.31
2022-09-15T10:04:45.219Z,99447.78
2022-09-15T10:07:13.112Z,99445.34
2022-09-15T10:09:47.613Z,99445.00
2022-09-15T10:12:20.579Z,99440.63
2022-09-15T10:14:52.618Z,99437.09
2022-09-15T10:17:36.004Z,99429.41
2022-09-15T10:20:05.365Z,99435.06
2022-09-15T10:22:40.938Z,99427.69
2022-09-15T10:25:19.423Z,99430.06
2022-09-15T10:28:12.079Z,99431.13
2022-09-15T10:30:40.172Z,99429.47
2022-09-15T10:33:27.785Z,99431.84
2022-09-15T10:35:59.744Z,99427.00
2022-09-15T10:38:34.234Z,99422.69
2022-09-15T10:41:07.997Z,99429.97
2022-09-15T10:43:48.060Z,99425.34
2022-09-15T10:46:27.493Z,99416.34
2022-09-15T10:49:06.014Z,99422.72
2022-09-15T10:51:50.849Z,99423.22
2022-09-15T10:54:41.479Z,99430.94
2022-09-15T10:57:27.917Z,99430.47
2022-09-15T11:00:06.698Z,99424.16
2022-09-15T11:02:50.503Z,99429.22
2022-09-15T11:05:25.635Z,99418.34
2022-09-15T11:08:07.358Z,99416.34
2022-09-15T11:10:48.876Z,99410.84
2022-09-15T11:13:37.598Z,99408.56
2022-09-15T11:16:12.054Z,99402.09
2022-09-15T11:18:56.303Z,99410.72
2022-09-15T11:21:43.502Z,99402.94
2022-09-15T11:24:22.167Z,99406.16
2022-09-15T11:26:54.793Z,99415.59
2022-09-15T11:29:47.383Z,99410.69
2022-09-15T11:32:26.041Z,99405.66
2022-09-15T11:35:20.117Z,99398.50
2022-09-15T11:37:50.733Z,99398.63
2022-09-15T11:40:33.405Z,99395.44
2022-09-15T11:43:03.773Z,99403.59
2022-09-15T11:45:37.611Z,99399.75
2022-09-15T11:48:14.031Z,99390.13
2022-09-15T11:50:45.812Z,99396.25
2022-09-15T11:53:18.395Z,99394.97
2022-09-15T11:55:50.943Z,99399.63
2022-09-15T11:59:01.349Z,99391.25
2022-09-15T12:01:38.605Z,99405.41
2022-09-15T12:04:18.374Z,99389.28
2022-09-15T12:07:12.381Z,99395.84
2022-09-15T12:09:41.045Z,99393.72
2022-09-15T12:12:14.541Z,99396.00
2022-09-15T12:14:44.175Z,99388.53
2022-09-15T12:17:41.749Z,99384.50
2022-09-15T12:20:19.788Z,99394.53
2022-09-15T12:22:55.021Z,99386.91
2022-09-15T12:25:44.700Z,99387.97
2022-09-15T12:28:23.159Z,99385.25
2022-09-15T12:31:18.953Z,99389.53
2022-09-15T12:34:01.164Z,99382.03
2022-09-15T12:36:44.334Z,99375.06
2022-09-15T12:39:25.584Z,99375.44
2022-09-15T12:42:02.142Z,99367.50
2022-09-15T12:44:32.762Z,99382.25
2022-09-15T12:47:02.965Z,99372.66
2022-09-15T12:49:35.101Z,99373.28
2022-09-15T12:52:05.516Z,99372.59
2022-09-15T12:54:34.247Z,99357.84
2022-09-15T12:57:02.711Z,99364.78
2022-09-15T12:59:29.830Z,99358.63
2022-09-15T13:01:57.112Z,99357.09
2022-09-15T13:04:48.720Z,99342.22
2022-09-15T13:07:15.279Z,99352.66
2022-09-15T13:09:44.578Z,99349.22
2022-09-15T13:12:17.278Z,99343.09
2022-09-15T13:14:48.336Z,99341.84
2022-09-15T13:17:21.473Z,99326.69
2022-09-15T13:19:51.523Z,99340.28
2022-09-15T13:22:31.103Z,99329.47
2022-09-15T13:25:15.773Z,99322.28
2022-09-15T13:27:45.956Z,99322.34
2022-09-15T13:30:22.170Z,99321.28
2022-09-15T13:33:05.829Z,99314.94
2022-09-15T13:35:39.042Z,99321.78
2022-09-15T13:38:20.197Z,99317.25
2022-09-15T13:40:58.459Z,99303.53
2022-09-15T13:43:31.206Z,99313.09
2022-09-15T13:46:20.269Z,99313.59
2022-09-15T13:49:01.896Z,99306.06
2022-09-15T13:51:31.112Z,99304.06
2022-09-15T13:54:03.082Z,99290.59
2022-09-15T13:56:36.022Z,99297.75
2022-09-15T13:59:11.647Z,99295.81
2022-09-15T14:01:42.768Z,99294.50
2022-09-15T14:04:14.648Z,99289.16
2022-09-15T14:06:45.639Z,99284.28
2022-09-15T14:09:27.485Z,99289.78
2022-09-15T14:11:58.105Z,99284.03
2022-09-15T14:14:27.734Z,99274.41
2022-09-15T14:16:56.747Z,99274.91
2022-09-15T14:19:43.936Z,99267.00
2022-09-15T14:22:26.199Z,99258.94
2022-09-15T14:24:53.909Z,99262.03
2022-09-15T14:27:29.447Z,99262.50
2022-09-15T14:30:00.548Z,99267.47
2022-09-15T14:32:29.658Z,99268.09
2022-09-15T14:35:03.986Z,99261.22
2022-09-15T14:37:34.590Z,99262.19
2022-09-15T14:40:17.871Z,99246.63
2022-09-15T14:42:44.675Z,99260.53
2022-09-15T14:48:01.556Z,99243.28
2022-09-15T14:50:32.885Z,99240.94
2022-09-15T14:53:16.297Z,99232.59
2022-09-15T14:56:08.096Z,99244.28
2022-09-15T14:58:48.596Z,99245.84
2022-09-15T15:01:21.259Z,99232.19
2022-09-15T15:04:01.731Z,99236.28
2022-09-15T15:06:38.859Z,99245.44
2022-09-15T15:09:19.632Z,99235.91
2022-09-15T15:11:54.979Z,99240.03
2022-09-15T15:16:58.934Z,99234.16
2022-09-15T15:19:37.064Z,99229.13
2022-09-15T15:22:23.812Z,99234.16
2022-09-15T15:24:52.967Z,99235.22
2022-09-15T15:27:32.546Z,99237.16
2022-09-15T15:30:30.771Z,99239.78
2022-09-15T15:33:05.206Z,99242.63
2022-09-15T15:35:34.114Z,99252.22
2022-09-15T15:38:10.384Z,99241.84
2022-09-15T15:40:39.881Z,99239.38
2022-09-15T15:43:12.642Z,99240.63
2022-09-15T15:45:50.070Z,99246.81
2022-09-15T15:48:16.700Z,99237.34
2022-09-15T15:50:43.832Z,99239.78
2022-09-15T15:53:10.596Z,99248.75
2022-09-15T15:55:40.593Z,99245.63
2022-09-15T15:58:08.807Z,99250.84
2022-09-15T16:00:41.466Z,99249.88
2022-09-15T16:03:09.577Z,99250.53
2022-09-15T16:05:37.233Z,99251.13
2022-09-15T16:08:11.164Z,99246.31
2022-09-15T16:10:44.173Z,99239.69
2022-09-15T16:13:21.639Z,99240.06
2022-09-15T16:15:48.428Z,99234.31
2022-09-15T16:18:15.510Z,99236.78
2022-09-15T16:20:42.725Z,99235.41
2022-09-15T16:23:18.665Z,99242.88
2022-09-15T16:25:53.688Z,99237.63
2022-09-15T16:28:20.374Z,99245.66
2022-09-15T16:30:47.319Z,99238.72
2022-09-15T16:33:15.554Z,99240.91
2022-09-15T16:35:51.033Z,99237.78
2022-09-15T16:38:20.245Z,99233.47
2022-09-15T16:40:47.866Z,99245.75
2022-09-15T16:43:16.642Z,99243.13
2022-09-15T16:45:46.737Z,99244.97
2022-09-15T16:48:14.664Z,99243.03
2022-09-15T16:50:50.518Z,99245.97
2022-09-15T16:53:30.939Z,99246.53
2022-09-15T16:55:57.473Z,99254.34
2022-09-15T16:58:23.971Z,99254.16
2022-09-15T17:00:52.569Z,99258.91
2022-09-15T17:03:21.605Z,99254.50
2022-09-15T17:05:53.677Z,99260.44
2022-09-15T17:08:23.400Z,99253.28
2022-09-15T17:10:50.783Z,99257.13
2022-09-15T17:13:19.627Z,99253.44
2022-09-15T17:15:47.675Z,99251.75
2022-09-15T17:18:15.628Z,99252.56
2022-09-15T17:20:47.233Z,99246.44
2022-09-15T17:23:32.381Z,99248.63
2022-09-15T17:26:01.298Z,99249.97
2022-09-15T17:28:34.370Z,99248.56
2022-09-15T17:31:03.797Z,99255.94
2022-09-15T17:33:32.062Z,99248.53
2022-09-15T17:35:59.677Z,99254.19
2022-09-15T17:38:26.609Z,99251.25
2022-09-15T17:40:55.294Z,99260.56
2022-09-15T17:43:25.290Z,99254.97
2022-09-15T17:45:52.286Z,99257.59
2022-09-15T17:48:19.771Z,99265.47
2022-09-15T17:50:48.682Z,99257.09
2022-09-15T17:53:22.793Z,99265.53
2022-09-15T17:55:50.847Z,99261.34
2022-09-15T17:58:18.287Z,99257.91
2022-09-15T18:00:46.386Z,99261.88
2022-09-15T18:03:33.361Z,99274.13
2022-09-15T18:06:03.702Z,99270.56
2022-09-15T18:08:30.866Z,99271.75
2022-09-15T18:10:57.441Z,99282.25
2022-09-15T18:13:29.967Z,99285.28
2022-09-15T18:15:58.001Z,99289.09
2022-09-15T18:18:27.394Z,99289.38
2022-09-15T18:20:56.745Z,99301.44
2022-09-15T18:23:26.040Z,99300.56
2022-09-15T18:25:52.939Z,99301.25
2022-09-15T18:28:20.005Z,99308.34
2022-09-15T18:30:49.397Z,99314.25
2022-09-15T18:33:22.322Z,99313.13
2022-09-15T18:35:51.209Z,99317.91
2022-09-15T18:38:19.390Z,99318.56
2022-09-15T18:40:53.353Z,99318.03
2022-09-15T18:43:21.255Z,99316.16
2022-09-15T18:45:48.407Z,99323.91
2022-09-15T18:48:15.780Z,99329.28
2022-09-15T18:50:45.784Z,99330.50
2022-09-15T18:53:12.739Z,99342.00
2022-09-15T18:55:42.791Z,99339.94
2022-09-15T18:58:09.859Z,99351.22
2022-09-15T19:00:36.808Z,99354.13
2022-09-15T19:03:05.557Z,99360.19
2022-09-15T19:05:33.149Z,99362.94
2022-09-15T19:08:00.438Z,99367.41
2022-09-15T19:10:27.207Z,99373.63
2022-09-15T19:12:54.428Z,99382.38
2022-09-15T19:15:23.632Z,99384.81
2022-09-15T19:17:51.354Z,99385.91
2022-09-15T19:20:18.215Z,99394.44
2022-09-15T19:22:44.793Z,99395.28
2022-09-15T19:25:12.392Z,99397.38
2022-09-15T19:27:39.918Z,99409.72
2022-09-15T19:30:10.113Z,99413.03
2022-09-15T19:32:38.286Z,99419.19
2022-09-15T19:35:05.775Z,99421.06
2022-09-15T19:37:36.961Z,99431.53
2022-09-15T19:40:08.624Z,99437.66
2022-09-15T19:42:36.388Z,99430.22
2022-09-15T19:45:02.949Z,99441.22
2022-09-15T19:47:29.822Z,99442.66
2022-09-15T19:49:56.369Z,99445.19
2022-09-15T19:52:23.134Z,99444.50
2022-09-15T19:54:50.055Z,99449.81
2022-09-15T19:57:16.991Z,99449.97
2022-09-15T19:59:44.759Z,99455.34
2022-09-15T20:02:14.603Z,99458.47
2022-09-15T20:04:41.614Z,99460.09
2022-09-15T20:07:08.214Z,99460.16
2022-09-15T20:09:35.075Z,99453.97
2022-09-15T20:12:03.445Z,99458.47
2022-09-15T20:14:31.098Z,99462.09
2022-09-15T20:17:00.969Z,99458.28
2022-09-15T20:19:28.372Z,99458.53
2022-09-15T20:21:55.052Z,99471.72
2022-09-15T20:24:22.257Z,99470.31
2022-09-15T20:26:49.009Z,99472.25
2022-09-15T20:29:16.010Z,99482.25
2022-09-15T20:31:42.881Z,99480.75
2022-09-15T20:34:09.568Z,99474.75
2022-09-15T20:36:38.749Z,99486.06
2022-09-15T20:39:09.306Z,99483.91
2022-09-15T20:41:37.063Z,99489.13
2022-09-15T20:44:05.261Z,99493.81
2022-09-15T20:46:31.879Z,99505.28
2022-09-15T20:48:58.470Z,99509.00
2022-09-15T20:51:27.948Z,99507.56
2022-09-15T20:53:56.332Z,99505.44
2022-09-15T20:56:25.566Z,99506.72
2022-09-15T20:58:55.994Z,99519.25
2022-09-15T21:01:25.707Z,99511.19
2022-09-15T21:03:52.297Z,99518.44
2022-09-15T21:06:21.162Z,99524.44
2022-09-15T21:08:48.716Z,99517.97
2022-09-15T21:11:17.054Z,99533.41
2022-09-15T21:13:44.419Z,99532.75
2022-09-15T21:16:15.290Z,99533.91
2022-09-15T21:18:43.958Z,99552.25
2022-09-15T21:21:12.346Z,99544.84
2022-09-15T21:23:41.614Z,99555.69
2022-09-15T21:26:11.025Z,99553.69
2022-09-15T21:28:38.794Z,99560.66
2022-09-15T21:31:08.630Z,99557.81
2022-09-15T21:33:37.065Z,99562.53
2022-09-15T21:36:11.856Z,99569.28
2022-09-15T21:38:40.594Z,99572.59
2022-09-15T21:41:09.618Z,99564.63
2022-09-15T21:43:38.675Z,99577.97
2022-09-15T21:46:08.582Z,99568.88
2022-09-15T21:48:35.892Z,99579.28
2022-09-15T21:51:04.115Z,99579.91
2022-09-15T21:53:31.084Z,99579.16
2022-09-15T21:56:01.973Z,99574.31
2022-09-15T21:58:37.923Z,99583.16
2022-09-15T22:01:24.532Z,99581.41
2022-09-15T22:03:53.161Z,99583.06
2022-09-15T22:06:22.396Z,99587.16
2022-09-15T22:08:49.145Z,99593.63
2022-09-15T22:11:15.722Z,99591.28
2022-09-15T22:13:44.642Z,99589.06
2022-09-15T22:16:16.977Z,99595.31
2022-09-15T22:18:44.494Z,99606.13
2022-09-15T22:21:14.583Z,99605.19
2022-09-15T22:23:42.993Z,99604.94
2022-09-15T22:26:15.715Z,99604.56
2022-09-15T22:28:42.797Z,99596.63
2022-09-15T22:31:11.574Z,99604.09
2022-09-15T22:33:40.920Z,99598.97
2022-09-15T22:36:12.235Z,99597.69
2022-09-15T22:38:39.283Z,99599.25
2022-09-15T22:41:09.126Z,99605.19
2022-09-15T22:43:36.819Z,99603.19
2022-09-15T22:46:03.946Z,99593.59
2022-09-15T22:48:30.967Z,99594.44
2022-09-15T22:50:57.499Z,99595.31
2022-09-15T22:53:24.061Z,99595.88
2022-09-15T22:55:51.176Z,99587.78
2022-09-15T22:58:17.757Z,99595.13
2022-09-15T23:00:44.517Z,99585.09
2022-09-15T23:03:11.872Z,99595.88
2022-09-15T23:05:38.374Z,99598.03
2022-09-15T23:08:05.270Z,99599.41
2022-09-15T23:10:32.760Z,99595.50
2022-09-15T23:12:59.864Z,99603.50
2022-09-15T23:15:26.455Z,99600.19
2022-09-15T23:17:53.060Z,99606.28
2022-09-15T23:20:19.776Z,99603.69
2022-09-15T23:22:46.275Z,99602.03
2022-09-15T23:25:13.148Z,99605.72
2022-09-15T23:27:39.633Z,99603.91
2022-09-15T23:30:06.738Z,99598.94
2022-09-15T23:32:33.448Z,99606.09
2022-09-15T23:34:59.934Z,99598.91
2022-09-15T23:37:26.482Z,99606.88
2022-09-15T23:39:53.030Z,99597.38
2022-09-15T23:42:19.558Z,99592.84
2022-09-15T23:44:46.162Z,99601.72
2022-09-15T23:47:12.872Z,99588.03
2022-09-15T23:49:39.795Z,99604.72
2022-09-15T23:52:06.447Z,99602.66
2022-09-15T23:54:33.127Z,99598.69
2022-09-15T23:56:59.690Z,99601.59
2022-09-15T23:59:26.241Z,99599.06
